createdAt,value
2019-01-22T00:05:31.879Z,29.65
2019-01-22T00:11:42.104Z,30.70
2019-01-22T00:17:34.882Z,31.02
2019-01-22T00:44:25.350Z,25.15
2019-01-22T00:47:38.274Z,28.02
2019-01-22T00:50:30.216Z,27.77
2019-01-22T00:56:28.115Z,24.85
2019-01-22T01:05:01.837Z,27.07
2019-01-22T01:35:26.175Z,23.95
2019-01-22T01:44:16.231Z,25.80
2019-01-22T01:53:09.124Z,22.95
2019-01-22T01:56:09.819Z,25.57
2019-01-22T02:01:35.986Z,24.30
2019-01-22T02:04:27.779Z,24.70
2019-01-22T02:07:14.538Z,24.95
2019-01-22T02:13:04.858Z,21.85
2019-01-22T02:16:26.955Z,24.00
2019-01-22T02:40:57.508Z,27.20
2019-01-22T02:47:16.591Z,25.27
2019-01-22T02:52:57.303Z,22.95
2019-01-22T03:01:50.032Z,26.73
2019-01-22T03:04:35.081Z,21.75
2019-01-22T03:07:15.773Z,24.23
2019-01-22T03:29:01.195Z,22.02
2019-01-22T04:04:49.157Z,27.67
2019-01-22T04:16:45.101Z,25.43
2019-01-22T04:23:00.066Z,27.20
2019-01-22T04:31:54.760Z,25.72
2019-01-22T04:40:48.229Z,22.10
2019-01-22T04:43:56.571Z,27.42
2019-01-22T04:56:08.190Z,20.35
2019-01-22T05:01:38.915Z,19.87
2019-01-22T05:07:31.420Z,24.20
2019-01-22T05:19:17.488Z,26.70
2019-01-22T05:25:43.171Z,21.15
2019-01-22T05:28:31.306Z,22.52
2019-01-22T05:43:14.671Z,22.80
2019-01-22T06:15:57.300Z,19.82
2019-01-22T06:18:44.218Z,20.35
2019-01-22T06:21:31.484Z,20.90
2019-01-22T06:24:18.679Z,18.17
2019-01-22T06:27:08.392Z,20.20
2019-01-22T06:29:55.337Z,20.05
2019-01-22T06:32:26.334Z,21.00
2019-01-22T06:38:22.725Z,21.37
2019-01-22T06:41:10.370Z,20.97
2019-01-22T06:49:58.506Z,21.45
2019-01-22T06:52:36.246Z,20.17
2019-01-22T06:55:23.185Z,19.02
2019-01-22T06:58:14.331Z,16.93
2019-01-22T07:00:49.080Z,24.02
2019-01-22T07:03:36.098Z,47.53
2019-01-22T07:06:23.105Z,39.00
2019-01-22T07:11:51.947Z,38.30
2019-01-22T07:14:38.890Z,34.25
2019-01-22T07:17:25.824Z,29.60
2019-01-22T07:20:12.801Z,23.92
2019-01-22T07:23:04.929Z,24.70
2019-01-22T07:25:53.679Z,26.85
2019-01-22T07:34:32.748Z,23.77
2019-01-22T07:37:20.396Z,20.57
2019-01-22T07:40:07.429Z,18.48
2019-01-22T07:42:56.214Z,20.10
2019-01-22T07:45:43.182Z,16.35
2019-01-22T07:48:30.870Z,19.17
2019-01-22T07:51:17.781Z,19.65
2019-01-22T07:57:12.977Z,14.95
2019-01-22T08:00:02.350Z,14.10
2019-01-22T08:02:48.691Z,15.88
2019-01-22T08:05:55.410Z,16.05
2019-01-22T08:08:45.984Z,16.25
2019-01-22T08:11:32.912Z,18.37
2019-01-22T08:14:21.862Z,15.25
2019-01-22T08:17:08.857Z,15.08
2019-01-22T08:19:55.781Z,15.80
2019-01-22T08:22:42.775Z,15.90
2019-01-22T08:25:31.489Z,16.62
2019-01-22T08:28:18.383Z,16.73
2019-01-22T08:31:05.342Z,16.45
2019-01-22T08:33:52.334Z,17.60
2019-01-22T08:36:39.300Z,16.12
2019-01-22T08:39:26.279Z,16.15
2019-01-22T08:42:13.159Z,17.32
2019-01-22T08:45:01.205Z,15.15
2019-01-22T08:47:48.631Z,17.92
2019-01-22T08:50:35.538Z,17.07
2019-01-22T08:53:24.854Z,16.02
2019-01-22T08:56:00.628Z,17.05
2019-01-22T08:58:47.562Z,17.17
2019-01-22T09:01:35.639Z,16.27
2019-01-22T09:04:23.166Z,15.20
2019-01-22T09:07:10.062Z,16.57
2019-01-22T09:09:56.979Z,15.00
2019-01-22T09:12:43.918Z,15.72
2019-01-22T09:15:30.862Z,16.25
2019-01-22T09:18:17.741Z,18.20
2019-01-22T09:21:04.665Z,17.15
2019-01-22T09:23:51.547Z,17.40
2019-01-22T09:26:22.952Z,17.02
2019-01-22T09:29:09.818Z,17.73
2019-01-22T09:31:51.363Z,16.52
2019-01-22T09:34:38.249Z,17.20
2019-01-22T09:37:25.163Z,16.17
2019-01-22T09:39:52.967Z,18.87
2019-01-22T09:42:20.799Z,18.75
2019-01-22T09:44:48.631Z,18.67
2019-01-22T09:47:16.470Z,19.42
2019-01-22T09:49:44.297Z,19.62
2019-01-22T09:52:12.118Z,18.10
2019-01-22T09:54:39.946Z,17.30
2019-01-22T09:57:07.789Z,17.65
2019-01-22T09:59:35.603Z,21.40
2019-01-22T10:02:03.472Z,16.87
2019-01-22T10:04:31.282Z,20.17
2019-01-22T10:07:18.110Z,17.42
2019-01-22T10:09:45.955Z,21.20
2019-01-22T10:12:13.958Z,18.55
2019-01-22T10:14:41.827Z,22.70
2019-01-22T10:17:09.693Z,20.32
2019-01-22T10:19:37.529Z,20.77
2019-01-22T10:22:05.571Z,20.52
2019-01-22T10:24:52.461Z,19.98
2019-01-22T10:27:20.330Z,21.10
2019-01-22T10:29:48.187Z,21.52
2019-01-22T10:34:49.417Z,20.82
2019-01-22T10:37:17.266Z,20.43
2019-01-22T10:39:45.094Z,22.37
2019-01-22T10:42:12.977Z,20.88
2019-01-22T10:44:40.877Z,22.10
2019-01-22T10:47:08.815Z,21.00
2019-01-22T10:49:36.637Z,21.90
2019-01-22T10:52:04.571Z,21.50
2019-01-22T10:54:32.428Z,20.75
2019-01-22T10:57:00.251Z,22.87
2019-01-22T10:59:28.095Z,23.45
2019-01-22T11:01:55.986Z,22.00
2019-01-22T11:04:23.825Z,22.48
2019-01-22T11:06:51.651Z,23.22
2019-01-22T11:09:19.522Z,22.65
2019-01-22T11:11:47.349Z,23.70
2019-01-22T11:14:15.194Z,22.52
2019-01-22T11:16:43.009Z,27.48
2019-01-22T11:19:11.013Z,25.30
2019-01-22T11:21:38.856Z,25.23
2019-01-22T11:24:06.732Z,22.82
2019-01-22T11:26:34.548Z,23.15
2019-01-22T11:29:02.364Z,26.70
2019-01-22T11:31:30.215Z,24.70
2019-01-22T11:33:58.066Z,24.18
2019-01-22T11:36:25.954Z,26.12
2019-01-22T11:38:53.819Z,23.30
2019-01-22T11:43:55.137Z,23.27
2019-01-22T11:46:22.950Z,23.25
2019-01-22T11:48:50.760Z,23.90
2019-01-22T11:51:18.616Z,24.02
2019-01-22T11:53:46.426Z,27.22
2019-01-22T11:56:14.452Z,24.82
2019-01-22T11:58:42.261Z,25.72
2019-01-22T12:01:10.105Z,24.90
2019-01-22T12:03:37.975Z,23.83
2019-01-22T12:06:05.805Z,23.42
2019-01-22T12:08:33.605Z,24.98
2019-01-22T12:11:01.441Z,24.20
2019-01-22T12:13:29.286Z,26.70
2019-01-22T12:15:57.144Z,23.90
2019-01-22T12:18:25.028Z,24.10
2019-01-22T12:20:52.837Z,24.00
2019-01-22T12:23:20.661Z,23.30
2019-01-22T12:25:48.457Z,23.57
2019-01-22T12:28:16.622Z,25.55
2019-01-22T12:30:44.431Z,26.27
2019-01-22T12:33:12.282Z,24.70
2019-01-22T12:35:40.111Z,24.55
2019-01-22T12:38:08.004Z,24.43
2019-01-22T12:40:35.846Z,25.92
2019-01-22T12:45:57.861Z,26.82
2019-01-22T12:48:25.669Z,26.00
2019-01-22T12:50:53.474Z,26.10
2019-01-22T12:53:21.317Z,27.30
2019-01-22T12:55:49.114Z,27.45
2019-01-22T12:58:16.949Z,24.35
2019-01-22T13:00:44.827Z,25.57
2019-01-22T13:03:12.665Z,28.95
2019-01-22T13:08:58.638Z,27.48
2019-01-22T13:11:26.445Z,22.90
2019-01-22T13:13:54.283Z,24.82
2019-01-22T13:16:22.353Z,24.65
2019-01-22T13:18:50.209Z,25.55
2019-01-22T13:21:18.042Z,25.43
2019-01-22T13:23:45.906Z,25.77
2019-01-22T13:26:13.692Z,26.00
2019-01-22T13:28:41.526Z,27.37
2019-01-22T13:31:09.376Z,27.30
2019-01-22T13:33:37.172Z,27.02
2019-01-22T13:38:39.994Z,25.52
2019-01-22T13:41:07.867Z,29.40
2019-01-22T13:43:35.682Z,27.32
2019-01-22T13:46:03.525Z,26.10
2019-01-22T13:48:31.354Z,30.92
2019-01-22T13:50:59.209Z,29.18
2019-01-22T13:53:27.022Z,29.20
2019-01-22T13:55:54.893Z,28.65
2019-01-22T13:58:22.861Z,28.38
2019-01-22T14:00:50.714Z,28.30
2019-01-22T14:03:18.564Z,24.27
2019-01-22T14:05:46.433Z,26.40
2019-01-22T14:08:14.266Z,25.80
2019-01-22T14:10:42.116Z,25.52
2019-01-22T14:13:09.929Z,27.42
2019-01-22T14:15:38.917Z,24.67
2019-01-22T14:18:07.136Z,25.70
2019-01-22T14:20:34.986Z,29.95
2019-01-22T14:23:02.827Z,26.65
2019-01-22T14:25:30.722Z,30.20
2019-01-22T14:27:58.589Z,28.20
2019-01-22T14:30:27.929Z,30.20
2019-01-22T14:32:55.769Z,25.70
2019-01-22T14:35:23.577Z,25.35
2019-01-22T14:37:51.409Z,22.62
2019-01-22T14:40:19.244Z,24.47
2019-01-22T14:42:47.116Z,25.52
2019-01-22T14:45:15.252Z,28.65
2019-01-22T14:47:43.085Z,20.80
2019-01-22T14:53:19.869Z,20.77
2019-01-22T14:55:47.668Z,19.90
2019-01-22T14:58:15.629Z,21.52
2019-01-22T15:00:43.449Z,20.20
2019-01-22T15:03:11.319Z,19.67
2019-01-22T15:05:39.130Z,20.25
2019-01-22T15:08:06.992Z,17.90
2019-01-22T15:10:34.837Z,22.58
2019-01-22T15:13:02.694Z,22.62
2019-01-22T15:15:31.013Z,23.30
2019-01-22T15:17:58.868Z,19.37
2019-01-22T15:20:26.837Z,24.50
2019-01-22T15:22:54.642Z,20.60
2019-01-22T15:25:22.482Z,20.75
2019-01-22T15:27:50.283Z,19.12
2019-01-22T15:30:37.186Z,20.70
2019-01-22T15:33:05.736Z,22.58
2019-01-22T15:35:33.789Z,21.68
2019-01-22T15:38:01.647Z,23.00
2019-01-22T15:40:29.869Z,22.10
2019-01-22T15:42:57.699Z,22.73
2019-01-22T15:48:19.833Z,23.50
2019-01-22T15:53:28.447Z,22.15
2019-01-22T15:55:56.277Z,25.02
2019-01-22T15:58:24.086Z,26.35
2019-01-22T16:00:51.901Z,21.90
2019-01-22T16:03:19.754Z,25.45
2019-01-22T16:05:47.633Z,28.30
2019-01-22T16:08:15.453Z,26.10
2019-01-22T16:10:43.290Z,22.93
2019-01-22T16:13:11.089Z,29.82
2019-01-22T16:15:38.949Z,25.82
2019-01-22T16:18:06.834Z,29.67
2019-01-22T16:20:34.835Z,27.70
2019-01-22T16:23:02.696Z,30.43
2019-01-22T16:25:30.606Z,26.75
2019-01-22T16:27:58.439Z,25.08
2019-01-22T16:30:26.898Z,27.45
2019-01-22T16:32:54.766Z,26.25
2019-01-22T16:35:23.279Z,26.40
2019-01-22T16:37:51.181Z,27.15
2019-01-22T16:40:18.966Z,29.00
2019-01-22T16:42:46.990Z,26.45
2019-01-22T16:45:16.627Z,30.32
2019-01-22T16:47:44.476Z,26.15
2019-01-22T16:53:20.983Z,28.73
2019-01-22T16:55:48.864Z,29.63
2019-01-22T16:58:16.728Z,28.90
2019-01-22T17:00:44.565Z,28.90
2019-01-22T17:03:12.438Z,29.85
2019-01-22T17:05:40.435Z,30.82
2019-01-22T17:08:08.314Z,29.02
2019-01-22T17:10:36.547Z,26.42
2019-01-22T17:15:58.331Z,29.10
2019-01-22T17:18:26.221Z,32.35
2019-01-22T17:20:54.057Z,30.12
2019-01-22T17:23:21.880Z,30.12
2019-01-22T17:25:49.732Z,28.95
2019-01-22T17:28:17.639Z,29.92
2019-01-22T17:30:45.569Z,32.78
2019-01-22T17:33:32.375Z,27.75
2019-01-22T17:36:00.270Z,31.80
2019-01-22T17:38:28.111Z,26.10
2019-01-22T17:40:56.019Z,26.93
2019-01-22T17:43:23.846Z,28.15
2019-01-22T17:45:51.737Z,28.05
2019-01-22T17:48:19.570Z,32.08
2019-01-22T17:50:47.494Z,30.65
2019-01-22T17:53:15.345Z,28.65
2019-01-22T17:55:43.410Z,33.67
2019-01-22T17:58:11.229Z,28.30
2019-01-22T18:03:14.309Z,28.75
2019-01-22T18:05:42.584Z,34.03
2019-01-22T18:08:10.432Z,30.97
2019-01-22T18:10:38.356Z,29.07
2019-01-22T18:13:06.202Z,30.40
2019-01-22T18:15:34.147Z,32.20
2019-01-22T18:18:04.176Z,32.48
2019-01-22T18:20:44.129Z,36.03
2019-01-22T18:23:01.716Z,38.75
2019-01-22T18:25:29.594Z,32.50
2019-01-22T18:28:16.517Z,29.77
2019-01-22T18:30:44.497Z,31.35
2019-01-22T18:33:12.835Z,32.67
2019-01-22T18:35:41.742Z,30.12
2019-01-22T18:38:10.032Z,31.87
2019-01-22T18:40:38.255Z,31.37
2019-01-22T18:54:13.878Z,36.40
2019-01-22T18:57:01.138Z,30.55
2019-01-22T18:59:29.038Z,30.25
2019-01-22T19:01:57.018Z,36.25
2019-01-22T19:04:27.294Z,34.88
2019-01-22T19:07:14.312Z,32.73
2019-01-22T19:09:42.223Z,28.42
2019-01-22T19:12:10.123Z,30.12
2019-01-22T19:14:38.593Z,30.95
2019-01-22T19:17:06.752Z,29.50
2019-01-22T19:27:58.217Z,28.67
2019-01-22T19:30:28.673Z,34.40
2019-01-22T19:32:57.016Z,29.48
2019-01-22T19:35:25.036Z,31.65
2019-01-22T19:37:52.898Z,32.40
2019-01-22T19:42:56.561Z,33.63
2019-01-22T19:45:25.865Z,30.52
2019-01-22T19:48:12.851Z,33.70
2019-01-22T19:53:27.851Z,35.88
2019-01-22T19:55:55.854Z,41.18
2019-01-22T19:58:23.736Z,35.88
2019-01-22T20:00:51.998Z,32.63
2019-01-22T20:03:40.018Z,35.45
2019-01-22T20:06:08.000Z,32.28
2019-01-22T20:08:35.968Z,35.80
2019-01-22T20:11:16.039Z,34.13
2019-01-22T20:13:33.622Z,34.05
2019-01-22T20:16:01.631Z,33.58
2019-01-22T20:18:29.497Z,34.38
2019-01-22T20:21:09.890Z,30.92
2019-01-22T20:23:27.378Z,34.08
2019-01-22T20:25:58.043Z,36.98
2019-01-22T20:28:25.946Z,32.50
2019-01-22T20:30:54.060Z,31.90
2019-01-22T20:33:25.073Z,34.10
2019-01-22T20:35:55.113Z,39.27
2019-01-22T20:38:23.437Z,34.88
2019-01-22T20:43:47.846Z,32.78
2019-01-22T20:49:10.415Z,43.42
2019-01-22T20:51:38.298Z,39.15
2019-01-22T20:54:06.297Z,39.27
2019-01-22T20:56:34.262Z,40.03
2019-01-22T20:59:02.260Z,38.88
2019-01-22T21:01:30.267Z,38.40
2019-01-22T21:04:01.046Z,34.33
2019-01-22T21:06:29.066Z,37.28
2019-01-22T21:14:38.643Z,33.50
2019-01-22T21:20:14.935Z,31.40
2019-01-22T21:25:49.058Z,33.18
2019-01-22T21:31:24.583Z,30.10
2019-01-22T21:37:00.050Z,31.60
2019-01-22T21:39:28.007Z,33.28
2019-01-22T21:47:38.308Z,34.00
2019-01-22T21:50:06.677Z,37.33
2019-01-22T21:52:34.589Z,32.83
2019-01-22T21:55:02.872Z,31.90
2019-01-22T21:57:30.837Z,33.75
2019-01-22T21:59:58.730Z,32.90
2019-01-22T22:02:48.005Z,29.55
2019-01-22T22:05:18.885Z,33.88
2019-01-22T22:10:20.446Z,33.63
2019-01-22T22:12:48.756Z,34.78
2019-01-22T22:15:17.727Z,34.80
2019-01-22T22:17:48.034Z,33.65
2019-01-22T22:20:16.097Z,31.70
2019-01-22T22:22:46.533Z,29.65
2019-01-22T22:25:36.607Z,37.08
2019-01-22T22:28:15.126Z,32.90
2019-01-22T22:39:41.598Z,30.95
2019-01-22T22:42:11.953Z,33.00
2019-01-22T22:45:13.027Z,34.38
2019-01-22T22:47:29.830Z,33.30
2019-01-22T22:49:57.766Z,31.50
2019-01-22T22:52:25.739Z,33.33
2019-01-22T22:57:28.978Z,35.85
2019-01-22T23:05:43.133Z,35.85
2019-01-22T23:11:05.336Z,35.90
2019-01-22T23:19:10.729Z,32.10
2019-01-22T23:21:58.233Z,38.38
2019-01-22T23:27:17.189Z,35.13
2019-01-22T23:32:34.690Z,41.35
2019-01-22T23:35:21.563Z,33.50
2019-01-22T23:38:10.012Z,35.63
2019-01-22T23:40:39.009Z,33.98
2019-01-22T23:46:28.634Z,29.67
2019-01-22T23:49:06.341Z,29.02
2019-01-22T23:54:14.696Z,34.67
2019-01-22T23:56:43.055Z,32.93
2019-01-22T23:59:16.843Z,30.88
